sensor_id;sensor_type;location;lat;lon;timestamp;temperature;humidity
20698;DHT22;10508;50.956;4.640;2023-07-31T00:00:36;16.70;99.90
20698;DHT22;10508;50.956;4.640;2023-07-31T00:03:02;16.80;99.90
20698;DHT22;10508;50.956;4.640;2023-07-31T00:05:27;16.70;99.90
20698;DHT22;10508;50.956;4.640;2023-07-31T00:07:53;16.80;99.90
20698;DHT22;10508;50.956;4.640;2023-07-31T00:10:20;16.80;99.90
20698;DHT22;10508;50.956;4.640;2023-07-31T00:12:46;16.80;99.90
20698;DHT22;10508;50.956;4.640;2023-07-31T00:15:14;16.90;99.90
20698;DHT22;10508;50.956;4.640;2023-07-31T00:17:40;16.90;99.90
20698;DHT22;10508;50.956;4.640;2023-07-31T00:20:06;16.90;99.90
20698;DHT22;10508;50.956;4.640;2023-07-31T00:22:31;16.90;99.90
20698;DHT22;10508;50.956;4.640;2023-07-31T00:24:57;17.00;99.90
20698;DHT22;10508;50.956;4.640;2023-07-31T00:27:23;16.90;99.90
20698;DHT22;10508;50.956;4.640;2023-07-31T00:29:49;17.00;99.90
20698;DHT22;10508;50.956;4.640;2023-07-31T00:32:14;17.00;99.90
20698;DHT22;10508;50.956;4.640;2023-07-31T00:37:06;16.90;99.90
20698;DHT22;10508;50.956;4.640;2023-07-31T00:56:50;17.40;99.90
20698;DHT22;10508;50.956;4.640;2023-07-31T00:59:18;17.30;99.90
20698;DHT22;10508;50.956;4.640;2023-07-31T01:01:47;17.20;99.90
20698;DHT22;10508;50.956;4.640;2023-07-31T01:04:13;17.20;99.90
20698;DHT22;10508;50.956;4.640;2023-07-31T01:06:52;17.20;99.90
20698;DHT22;10508;50.956;4.640;2023-07-31T01:12:01;17.20;99.90
20698;DHT22;10508;50.956;4.640;2023-07-31T01:14:27;17.20;99.90
20698;DHT22;10508;50.956;4.640;2023-07-31T01:16:53;17.30;99.90
20698;DHT22;10508;50.956;4.640;2023-07-31T01:19:22;17.20;99.90
20698;DHT22;10508;50.956;4.640;2023-07-31T01:22:12;17.30;99.90
20698;DHT22;10508;50.956;4.640;2023-07-31T01:24:55;17.30;99.90
20698;DHT22;10508;50.956;4.640;2023-07-31T01:27:30;17.30;99.90
20698;DHT22;10508;50.956;4.640;2023-07-31T01:30:16;17.40;99.90
20698;DHT22;10508;50.956;4.640;2023-07-31T01:32:47;17.30;99.90
20698;DHT22;10508;50.956;4.640;2023-07-31T01:35:14;17.30;99.90
20698;DHT22;10508;50.956;4.640;2023-07-31T01:37:39;17.50;99.90
20698;DHT22;10508;50.956;4.640;2023-07-31T01:40:06;17.30;99.90
20698;DHT22;10508;50.956;4.640;2023-07-31T01:42:38;17.30;99.90
20698;DHT22;10508;50.956;4.640;2023-07-31T01:45:04;17.30;99.90
20698;DHT22;10508;50.956;4.640;2023-07-31T01:47:29;17.30;99.90
20698;DHT22;10508;50.956;4.640;2023-07-31T01:49:55;17.20;99.90
20698;DHT22;10508;50.956;4.640;2023-07-31T01:57:13;17.30;99.90
20698;DHT22;10508;50.956;4.640;2023-07-31T02:14:28;17.30;99.90
20698;DHT22;10508;50.956;4.640;2023-07-31T02:16:54;17.40;99.90
20698;DHT22;10508;50.956;4.640;2023-07-31T02:36:31;17.70;99.90
20698;DHT22;10508;50.956;4.640;2023-07-31T02:38:57;17.50;99.90
20698;DHT22;10508;50.956;4.640;2023-07-31T02:41:22;17.50;99.90
20698;DHT22;10508;50.956;4.640;2023-07-31T02:43:48;17.40;99.90
20698;DHT22;10508;50.956;4.640;2023-07-31T02:48:40;17.40;99.90
20698;DHT22;10508;50.956;4.640;2023-07-31T02:51:07;17.30;99.90
20698;DHT22;10508;50.956;4.640;2023-07-31T03:10:40;17.60;99.90
20698;DHT22;10508;50.956;4.640;2023-07-31T03:13:05;17.60;99.90
20698;DHT22;10508;50.956;4.640;2023-07-31T03:15:31;17.50;99.90
20698;DHT22;10508;50.956;4.640;2023-07-31T03:17:57;17.50;99.90
20698;DHT22;10508;50.956;4.640;2023-07-31T03:20:22;17.50;99.90
20698;DHT22;10508;50.956;4.640;2023-07-31T03:22:48;17.50;99.90
20698;DHT22;10508;50.956;4.640;2023-07-31T03:25:14;17.60;99.90
20698;DHT22;10508;50.956;4.640;2023-07-31T03:27:39;17.50;99.90
20698;DHT22;10508;50.956;4.640;2023-07-31T03:30:05;17.50;99.90
20698;DHT22;10508;50.956;4.640;2023-07-31T03:32:31;17.60;99.90
20698;DHT22;10508;50.956;4.640;2023-07-31T03:34:57;17.50;99.90
20698;DHT22;10508;50.956;4.640;2023-07-31T03:37:23;17.50;99.90
20698;DHT22;10508;50.956;4.640;2023-07-31T03:39:49;17.50;99.90
20698;DHT22;10508;50.956;4.640;2023-07-31T03:42:14;17.40;99.90
20698;DHT22;10508;50.956;4.640;2023-07-31T03:44:40;17.50;99.90
20698;DHT22;10508;50.956;4.640;2023-07-31T03:47:06;17.50;99.90
20698;DHT22;10508;50.956;4.640;2023-07-31T03:49:31;17.50;99.90
20698;DHT22;10508;50.956;4.640;2023-07-31T03:51:57;17.50;99.90
20698;DHT22;10508;50.956;4.640;2023-07-31T03:54:23;17.50;99.90
20698;DHT22;10508;50.956;4.640;2023-07-31T03:56:48;17.50;99.90
20698;DHT22;10508;50.956;4.640;2023-07-31T03:59:14;17.50;99.90
20698;DHT22;10508;50.956;4.640;2023-07-31T04:01:39;17.40;99.90
20698;DHT22;10508;50.956;4.640;2023-07-31T04:04:05;17.50;99.90
20698;DHT22;10508;50.956;4.640;2023-07-31T04:06:31;17.50;99.90
20698;DHT22;10508;50.956;4.640;2023-07-31T04:08:57;17.50;99.90
20698;DHT22;10508;50.956;4.640;2023-07-31T04:11:22;17.40;99.90
20698;DHT22;10508;50.956;4.640;2023-07-31T04:16:15;17.20;99.90
20698;DHT22;10508;50.956;4.640;2023-07-31T04:18:43;17.10;99.90
20698;DHT22;10508;50.956;4.640;2023-07-31T04:21:08;17.20;99.90
20698;DHT22;10508;50.956;4.640;2023-07-31T04:23:35;17.20;99.90
20698;DHT22;10508;50.956;4.640;2023-07-31T04:26:01;17.20;99.90
20698;DHT22;10508;50.956;4.640;2023-07-31T04:28:26;17.20;99.90
20698;DHT22;10508;50.956;4.640;2023-07-31T04:30:52;17.30;99.90
20698;DHT22;10508;50.956;4.640;2023-07-31T04:45:49;17.10;99.90
20698;DHT22;10508;50.956;4.640;2023-07-31T05:00:37;17.00;99.90
20698;DHT22;10508;50.956;4.640;2023-07-31T05:10:29;17.10;99.90
20698;DHT22;10508;50.956;4.640;2023-07-31T06:26:46;17.20;99.90
20698;DHT22;10508;50.956;4.640;2023-07-31T06:29:11;17.20;99.90
20698;DHT22;10508;50.956;4.640;2023-07-31T06:31:37;17.10;99.90
20698;DHT22;10508;50.956;4.640;2023-07-31T06:34:02;17.20;99.90
20698;DHT22;10508;50.956;4.640;2023-07-31T07:54:26;18.10;99.90
20698;DHT22;10508;50.956;4.640;2023-07-31T07:56:52;18.10;99.90
20698;DHT22;10508;50.956;4.640;2023-07-31T07:59:18;18.00;99.90
20698;DHT22;10508;50.956;4.640;2023-07-31T08:01:44;18.00;99.90
20698;DHT22;10508;50.956;4.640;2023-07-31T08:04:09;18.00;99.90
20698;DHT22;10508;50.956;4.640;2023-07-31T08:55:48;18.70;99.90
20698;DHT22;10508;50.956;4.640;2023-07-31T08:58:15;18.50;99.90
20698;DHT22;10508;50.956;4.640;2023-07-31T09:00:41;18.50;99.90
20698;DHT22;10508;50.956;4.640;2023-07-31T09:03:13;18.40;99.90
20698;DHT22;10508;50.956;4.640;2023-07-31T09:05:43;18.40;99.90
20698;DHT22;10508;50.956;4.640;2023-07-31T09:08:11;18.40;99.90
20698;DHT22;10508;50.956;4.640;2023-07-31T09:10:42;18.40;99.90
20698;DHT22;10508;50.956;4.640;2023-07-31T09:13:08;18.40;99.90
20698;DHT22;10508;50.956;4.640;2023-07-31T09:15:35;18.40;99.90
20698;DHT22;10508;50.956;4.640;2023-07-31T09:18:04;18.40;99.90
20698;DHT22;10508;50.956;4.640;2023-07-31T09:20:30;18.40;99.90
20698;DHT22;10508;50.956;4.640;2023-07-31T09:23:08;18.40;99.90
20698;DHT22;10508;50.956;4.640;2023-07-31T09:28:11;18.50;99.90
20698;DHT22;10508;50.956;4.640;2023-07-31T09:30:48;18.40;99.90
20698;DHT22;10508;50.956;4.640;2023-07-31T09:50:38;19.10;99.90
20698;DHT22;10508;50.956;4.640;2023-07-31T09:53:05;19.10;99.90
20698;DHT22;10508;50.956;4.640;2023-07-31T09:55:31;19.10;99.90
20698;DHT22;10508;50.956;4.640;2023-07-31T09:58:03;19.10;99.90
20698;DHT22;10508;50.956;4.640;2023-07-31T10:00:30;19.20;99.90
20698;DHT22;10508;50.956;4.640;2023-07-31T10:02:58;19.20;99.90
20698;DHT22;10508;50.956;4.640;2023-07-31T10:05:31;19.30;99.90
20698;DHT22;10508;50.956;4.640;2023-07-31T10:07:59;19.50;99.90
20698;DHT22;10508;50.956;4.640;2023-07-31T10:10:26;19.40;99.90
20698;DHT22;10508;50.956;4.640;2023-07-31T10:22:43;19.80;99.90
20698;DHT22;10508;50.956;4.640;2023-07-31T10:25:09;19.50;99.90
20698;DHT22;10508;50.956;4.640;2023-07-31T10:27:36;19.40;99.90
20698;DHT22;10508;50.956;4.640;2023-07-31T10:30:04;19.20;99.90
20698;DHT22;10508;50.956;4.640;2023-07-31T10:32:31;19.10;99.90
20698;DHT22;10508;50.956;4.640;2023-07-31T10:42:38;19.70;99.90
20698;DHT22;10508;50.956;4.640;2023-07-31T10:45:10;19.40;99.90
20698;DHT22;10508;50.956;4.640;2023-07-31T10:47:45;19.40;99.90
20698;DHT22;10508;50.956;4.640;2023-07-31T10:52:56;19.40;99.90
20698;DHT22;10508;50.956;4.640;2023-07-31T10:55:30;19.40;99.90
20698;DHT22;10508;50.956;4.640;2023-07-31T10:57:58;19.40;99.90
20698;DHT22;10508;50.956;4.640;2023-07-31T11:00:29;19.50;99.90
20698;DHT22;10508;50.956;4.640;2023-07-31T11:03:00;19.50;99.90
20698;DHT22;10508;50.956;4.640;2023-07-31T11:10:41;19.70;99.90
20698;DHT22;10508;50.956;4.640;2023-07-31T11:13:07;19.70;99.90
20698;DHT22;10508;50.956;4.640;2023-07-31T11:15:33;19.70;99.90
20698;DHT22;10508;50.956;4.640;2023-07-31T11:18:00;19.70;99.90
20698;DHT22;10508;50.956;4.640;2023-07-31T11:20:30;19.80;99.90
20698;DHT22;10508;50.956;4.640;2023-07-31T11:22:59;19.80;99.90
20698;DHT22;10508;50.956;4.640;2023-07-31T11:25:26;19.80;99.90
20698;DHT22;10508;50.956;4.640;2023-07-31T11:27:51;19.90;99.90
20698;DHT22;10508;50.956;4.640;2023-07-31T11:30:19;20.00;99.90
20698;DHT22;10508;50.956;4.640;2023-07-31T11:32:45;20.00;99.90
20698;DHT22;10508;50.956;4.640;2023-07-31T11:35:14;20.10;99.90
20698;DHT22;10508;50.956;4.640;2023-07-31T11:37:41;20.20;99.90
20698;DHT22;10508;50.956;4.640;2023-07-31T11:40:08;20.10;99.90
20698;DHT22;10508;50.956;4.640;2023-07-31T11:42:37;20.20;99.90
20698;DHT22;10508;50.956;4.640;2023-07-31T11:45:04;20.30;99.90
20698;DHT22;10508;50.956;4.640;2023-07-31T11:47:32;20.20;99.90
20698;DHT22;10508;50.956;4.640;2023-07-31T11:50:00;20.20;99.90
20698;DHT22;10508;50.956;4.640;2023-07-31T11:52:32;20.30;99.90
20698;DHT22;10508;50.956;4.640;2023-07-31T11:54:59;20.20;99.90
20698;DHT22;10508;50.956;4.640;2023-07-31T11:57:26;20.20;99.90
20698;DHT22;10508;50.956;4.640;2023-07-31T11:59:52;20.20;99.90
20698;DHT22;10508;50.956;4.640;2023-07-31T12:02:18;20.10;99.90
20698;DHT22;10508;50.956;4.640;2023-07-31T12:04:46;20.10;99.90
20698;DHT22;10508;50.956;4.640;2023-07-31T12:07:12;20.00;99.90
20698;DHT22;10508;50.956;4.640;2023-07-31T12:09:38;20.00;99.90
20698;DHT22;10508;50.956;4.640;2023-07-31T12:12:08;20.00;99.90
20698;DHT22;10508;50.956;4.640;2023-07-31T12:14:34;20.10;99.90
20698;DHT22;10508;50.956;4.640;2023-07-31T12:17:04;20.30;99.90
20698;DHT22;10508;50.956;4.640;2023-07-31T12:19:30;20.40;99.90
20698;DHT22;10508;50.956;4.640;2023-07-31T12:21:57;20.40;99.90
20698;DHT22;10508;50.956;4.640;2023-07-31T12:24:23;20.50;99.90
20698;DHT22;10508;50.956;4.640;2023-07-31T12:26:49;20.40;99.90
20698;DHT22;10508;50.956;4.640;2023-07-31T12:29:15;20.40;99.90
20698;DHT22;10508;50.956;4.640;2023-07-31T12:31:41;20.30;99.90
20698;DHT22;10508;50.956;4.640;2023-07-31T12:34:18;20.40;99.90
20698;DHT22;10508;50.956;4.640;2023-07-31T12:36:44;20.30;99.90
20698;DHT22;10508;50.956;4.640;2023-07-31T12:39:10;20.30;99.90
20698;DHT22;10508;50.956;4.640;2023-07-31T12:41:36;20.20;99.90
20698;DHT22;10508;50.956;4.640;2023-07-31T12:44:02;20.30;99.90
20698;DHT22;10508;50.956;4.640;2023-07-31T12:48:54;20.70;99.90
20698;DHT22;10508;50.956;4.640;2023-07-31T12:51:20;20.70;99.90
20698;DHT22;10508;50.956;4.640;2023-07-31T12:53:46;20.60;99.90
20698;DHT22;10508;50.956;4.640;2023-07-31T12:56:12;20.70;99.90
20698;DHT22;10508;50.956;4.640;2023-07-31T12:58:37;20.60;99.90
20698;DHT22;10508;50.956;4.640;2023-07-31T13:01:03;20.50;99.90
20698;DHT22;10508;50.956;4.640;2023-07-31T13:03:29;20.50;99.90
20698;DHT22;10508;50.956;4.640;2023-07-31T13:05:55;20.50;99.90
20698;DHT22;10508;50.956;4.640;2023-07-31T13:08:20;20.50;99.90
20698;DHT22;10508;50.956;4.640;2023-07-31T13:10:46;20.60;99.90
20698;DHT22;10508;50.956;4.640;2023-07-31T13:13:12;20.40;99.90
20698;DHT22;10508;50.956;4.640;2023-07-31T13:15:38;20.40;99.90
20698;DHT22;10508;50.956;4.640;2023-07-31T13:18:03;20.30;99.90
20698;DHT22;10508;50.956;4.640;2023-07-31T13:20:29;20.10;99.90
20698;DHT22;10508;50.956;4.640;2023-07-31T13:22:55;20.10;99.90
20698;DHT22;10508;50.956;4.640;2023-07-31T13:27:46;19.90;99.90
20698;DHT22;10508;50.956;4.640;2023-07-31T13:30:12;20.00;99.90
20698;DHT22;10508;50.956;4.640;2023-07-31T13:35:06;19.90;99.90
20698;DHT22;10508;50.956;4.640;2023-07-31T13:39:59;19.70;99.90
20698;DHT22;10508;50.956;4.640;2023-07-31T13:44:53;19.30;99.90
20698;DHT22;10508;50.956;4.640;2023-07-31T13:47:21;19.40;99.90
20698;DHT22;10508;50.956;4.640;2023-07-31T13:49:47;19.50;99.90
20698;DHT22;10508;50.956;4.640;2023-07-31T14:19:15;18.70;99.90
20698;DHT22;10508;50.956;4.640;2023-07-31T14:29:06;18.70;99.90
20698;DHT22;10508;50.956;4.640;2023-07-31T14:31:32;18.80;99.90
20698;DHT22;10508;50.956;4.640;2023-07-31T14:33:58;18.80;99.90
20698;DHT22;10508;50.956;4.640;2023-07-31T14:36:24;18.80;99.90
20698;DHT22;10508;50.956;4.640;2023-07-31T14:38:51;18.80;99.90
20698;DHT22;10508;50.956;4.640;2023-07-31T14:43:44;18.60;99.90
20698;DHT22;10508;50.956;4.640;2023-07-31T14:46:10;18.90;99.90
20698;DHT22;10508;50.956;4.640;2023-07-31T14:51:02;18.80;99.90
20698;DHT22;10508;50.956;4.640;2023-07-31T15:08:18;18.60;99.90
20698;DHT22;10508;50.956;4.640;2023-07-31T15:32:53;18.30;99.90
20698;DHT22;10508;50.956;4.640;2023-07-31T15:35:18;18.70;99.90
20698;DHT22;10508;50.956;4.640;2023-07-31T15:37:44;18.50;99.90
20698;DHT22;10508;50.956;4.640;2023-07-31T15:40:10;18.40;99.90
20698;DHT22;10508;50.956;4.640;2023-07-31T15:42:35;18.40;99.90
20698;DHT22;10508;50.956;4.640;2023-07-31T15:45:06;18.40;99.90
20698;DHT22;10508;50.956;4.640;2023-07-31T15:47:32;18.40;99.90
20698;DHT22;10508;50.956;4.640;2023-07-31T16:02:12;18.80;99.90
20698;DHT22;10508;50.956;4.640;2023-07-31T16:04:37;18.70;99.90
20698;DHT22;10508;50.956;4.640;2023-07-31T16:07:03;18.60;99.90
20698;DHT22;10508;50.956;4.640;2023-07-31T16:09:29;18.50;99.90
20698;DHT22;10508;50.956;4.640;2023-07-31T16:11:55;18.50;99.90
20698;DHT22;10508;50.956;4.640;2023-07-31T16:14:20;18.50;99.90
20698;DHT22;10508;50.956;4.640;2023-07-31T16:16:46;18.40;99.90
20698;DHT22;10508;50.956;4.640;2023-07-31T16:19:13;18.50;99.90
20698;DHT22;10508;50.956;4.640;2023-07-31T16:21:38;18.50;99.90
20698;DHT22;10508;50.956;4.640;2023-07-31T16:24:04;18.50;99.90
20698;DHT22;10508;50.956;4.640;2023-07-31T16:26:31;18.70;99.90
20698;DHT22;10508;50.956;4.640;2023-07-31T16:28:57;18.60;99.90
20698;DHT22;10508;50.956;4.640;2023-07-31T16:31:22;18.40;99.90
20698;DHT22;10508;50.956;4.640;2023-07-31T16:33:48;18.50;99.90
20698;DHT22;10508;50.956;4.640;2023-07-31T16:36:14;18.50;99.90
20698;DHT22;10508;50.956;4.640;2023-07-31T16:38:40;18.50;99.90
20698;DHT22;10508;50.956;4.640;2023-07-31T16:41:06;18.60;99.90
20698;DHT22;10508;50.956;4.640;2023-07-31T16:43:31;18.50;99.90
20698;DHT22;10508;50.956;4.640;2023-07-31T16:45:57;18.50;99.90
20698;DHT22;10508;50.956;4.640;2023-07-31T16:48:23;18.40;99.90
20698;DHT22;10508;50.956;4.640;2023-07-31T16:50:48;18.40;99.90
20698;DHT22;10508;50.956;4.640;2023-07-31T16:53:14;18.40;99.90
20698;DHT22;10508;50.956;4.640;2023-07-31T16:55:40;18.40;99.90
20698;DHT22;10508;50.956;4.640;2023-07-31T16:58:05;18.40;99.90
20698;DHT22;10508;50.956;4.640;2023-07-31T17:00:33;18.40;99.90
20698;DHT22;10508;50.956;4.640;2023-07-31T17:02:58;18.30;99.90
20698;DHT22;10508;50.956;4.640;2023-07-31T17:05:24;18.30;99.90
20698;DHT22;10508;50.956;4.640;2023-07-31T17:07:50;18.30;99.90
20698;DHT22;10508;50.956;4.640;2023-07-31T17:10:15;18.30;99.90
20698;DHT22;10508;50.956;4.640;2023-07-31T17:12:41;18.30;99.90
20698;DHT22;10508;50.956;4.640;2023-07-31T17:15:07;18.30;99.90
20698;DHT22;10508;50.956;4.640;2023-07-31T17:17:33;18.30;99.90
20698;DHT22;10508;50.956;4.640;2023-07-31T17:19:58;18.30;99.90
20698;DHT22;10508;50.956;4.640;2023-07-31T17:22:24;18.30;99.90
20698;DHT22;10508;50.956;4.640;2023-07-31T17:24:50;18.80;99.90
20698;DHT22;10508;50.956;4.640;2023-07-31T17:27:15;18.80;99.90
20698;DHT22;10508;50.956;4.640;2023-07-31T17:29:41;18.40;99.90
20698;DHT22;10508;50.956;4.640;2023-07-31T17:32:07;18.70;99.90
20698;DHT22;10508;50.956;4.640;2023-07-31T17:34:32;18.60;99.90
20698;DHT22;10508;50.956;4.640;2023-07-31T17:36:58;18.20;99.90
20698;DHT22;10508;50.956;4.640;2023-07-31T17:39:24;18.00;99.90
20698;DHT22;10508;50.956;4.640;2023-07-31T17:41:50;18.40;99.90
20698;DHT22;10508;50.956;4.640;2023-07-31T17:44:15;18.30;99.90
20698;DHT22;10508;50.956;4.640;2023-07-31T17:46:42;18.50;99.90
20698;DHT22;10508;50.956;4.640;2023-07-31T17:49:07;18.30;99.90
20698;DHT22;10508;50.956;4.640;2023-07-31T17:51:35;17.80;99.90
20698;DHT22;10508;50.956;4.640;2023-07-31T17:54:01;18.40;99.90
20698;DHT22;10508;50.956;4.640;2023-07-31T17:56:27;18.40;99.90
20698;DHT22;10508;50.956;4.640;2023-07-31T17:58:53;18.40;99.90
20698;DHT22;10508;50.956;4.640;2023-07-31T18:01:19;18.40;99.90
20698;DHT22;10508;50.956;4.640;2023-07-31T18:03:44;18.40;99.90
20698;DHT22;10508;50.956;4.640;2023-07-31T18:06:10;18.40;99.90
20698;DHT22;10508;50.956;4.640;2023-07-31T18:08:36;18.40;99.90
20698;DHT22;10508;50.956;4.640;2023-07-31T18:11:03;18.30;99.90
20698;DHT22;10508;50.956;4.640;2023-07-31T18:13:28;18.40;99.90
20698;DHT22;10508;50.956;4.640;2023-07-31T18:15:54;18.30;99.90
20698;DHT22;10508;50.956;4.640;2023-07-31T18:18:20;18.30;99.90
20698;DHT22;10508;50.956;4.640;2023-07-31T18:20:45;18.30;99.90
20698;DHT22;10508;50.956;4.640;2023-07-31T18:23:11;18.30;99.90
20698;DHT22;10508;50.956;4.640;2023-07-31T18:25:39;18.30;99.90
20698;DHT22;10508;50.956;4.640;2023-07-31T18:28:05;18.30;99.90
20698;DHT22;10508;50.956;4.640;2023-07-31T18:30:30;18.30;99.90
20698;DHT22;10508;50.956;4.640;2023-07-31T18:32:56;18.30;99.90
20698;DHT22;10508;50.956;4.640;2023-07-31T18:35:21;18.30;99.90
20698;DHT22;10508;50.956;4.640;2023-07-31T18:37:47;18.30;99.90
20698;DHT22;10508;50.956;4.640;2023-07-31T18:40:13;18.40;99.90
20698;DHT22;10508;50.956;4.640;2023-07-31T18:42:38;18.40;99.90
20698;DHT22;10508;50.956;4.640;2023-07-31T18:45:05;18.30;99.90
20698;DHT22;10508;50.956;4.640;2023-07-31T18:47:31;18.30;99.90
20698;DHT22;10508;50.956;4.640;2023-07-31T18:49:56;18.30;99.90
20698;DHT22;10508;50.956;4.640;2023-07-31T18:52:22;18.30;99.90
20698;DHT22;10508;50.956;4.640;2023-07-31T18:54:48;18.30;99.90
20698;DHT22;10508;50.956;4.640;2023-07-31T18:57:13;18.30;99.90
20698;DHT22;10508;50.956;4.640;2023-07-31T18:59:39;18.30;99.90
20698;DHT22;10508;50.956;4.640;2023-07-31T19:02:05;18.20;99.90
20698;DHT22;10508;50.956;4.640;2023-07-31T19:04:31;18.20;99.90
20698;DHT22;10508;50.956;4.640;2023-07-31T19:06:59;18.20;99.90
20698;DHT22;10508;50.956;4.640;2023-07-31T19:09:32;18.20;99.90
20698;DHT22;10508;50.956;4.640;2023-07-31T19:11:59;18.20;99.90
20698;DHT22;10508;50.956;4.640;2023-07-31T19:16:51;18.30;99.90
20698;DHT22;10508;50.956;4.640;2023-07-31T19:19:19;18.30;99.90
20698;DHT22;10508;50.956;4.640;2023-07-31T19:21:45;18.20;99.90
20698;DHT22;10508;50.956;4.640;2023-07-31T19:24:11;18.20;99.90
20698;DHT22;10508;50.956;4.640;2023-07-31T19:26:37;18.20;99.90
20698;DHT22;10508;50.956;4.640;2023-07-31T19:29:02;18.20;99.90
20698;DHT22;10508;50.956;4.640;2023-07-31T19:31:28;18.20;99.90
20698;DHT22;10508;50.956;4.640;2023-07-31T19:33:54;18.20;99.90
20698;DHT22;10508;50.956;4.640;2023-07-31T19:36:19;18.30;99.90
20698;DHT22;10508;50.956;4.640;2023-07-31T19:38:45;18.10;99.90
20698;DHT22;10508;50.956;4.640;2023-07-31T19:41:11;18.10;99.90
20698;DHT22;10508;50.956;4.640;2023-07-31T19:43:37;18.20;99.90
20698;DHT22;10508;50.956;4.640;2023-07-31T19:50:56;18.10;99.90
20698;DHT22;10508;50.956;4.640;2023-07-31T19:53:22;18.20;99.90
20698;DHT22;10508;50.956;4.640;2023-07-31T19:55:47;18.10;99.90
20698;DHT22;10508;50.956;4.640;2023-07-31T20:00:39;18.10;99.90
20698;DHT22;10508;50.956;4.640;2023-07-31T20:03:05;18.10;99.90
20698;DHT22;10508;50.956;4.640;2023-07-31T20:05:31;18.20;99.90
20698;DHT22;10508;50.956;4.640;2023-07-31T20:15:22;18.10;99.90
20698;DHT22;10508;50.956;4.640;2023-07-31T20:27:36;18.00;99.90
20698;DHT22;10508;50.956;4.640;2023-07-31T20:30:02;18.10;99.90
20698;DHT22;10508;50.956;4.640;2023-07-31T20:32:28;18.10;99.90
20698;DHT22;10508;50.956;4.640;2023-07-31T20:34:53;17.70;99.90
